Time;durP1;ratioP1;P1;durP2;ratioP2;P2;SDS_P1;SDS_P2;PMS_P1;PMS_P2;Temp;Humidity;BMP_temperature;BMP_pressure;BME280_temperature;BME280_humidity;BME280_pressure;Samples;Min_cycle;Max_cycle;Signal;HPM_P1;HPM_P2
2023/06/06 00:01:52;;;;;;;3.60;3.30;;;;;;;;;;4918104;29;20190;-77
2023/06/06 00:04:18;;;;;;;3.67;3.37;;;;;;;;;;4932808;29;20198;-77
2023/06/06 00:06:45;;;;;;;3.93;3.47;;;;;;;;;;4917601;29;20186;-77
2023/06/06 00:09:11;;;;;;;4.00;3.57;;;;;;;;;;4917935;29;20345;-77
2023/06/06 00:11:39;;;;;;;3.87;3.50;;;;;;;;;;4917922;29;20203;-77
2023/06/06 00:14:07;;;;;;;4.67;3.70;;;;;;;;;;4917982;29;20194;-77
2023/06/06 00:16:34;;;;;;;4.33;3.93;;;;;;;;;;4932158;29;20182;-77
2023/06/06 00:19:00;;;;;;;3.63;3.33;;;;;;;;;;4936858;29;20202;-77
2023/06/06 00:21:28;;;;;;;4.50;3.40;;;;;;;;;;4935755;29;20662;-77
2023/06/06 00:23:55;;;;;;;3.37;3.07;;;;;;;;;;4936764;29;20214;-77
2023/06/06 00:26:21;;;;;;;4.30;2.90;;;;;;;;;;4936603;29;20185;-77
2023/06/06 00:28:47;;;;;;;4.77;3.37;;;;;;;;;;4925150;29;20207;-77
2023/06/06 00:31:14;;;;;;;3.77;3.33;;;;;;;;;;4917789;29;20840;-77
2023/06/06 00:33:40;;;;;;;4.90;3.43;;;;;;;;;;4917675;29;20234;-77
2023/06/06 00:36:06;;;;;;;3.30;3.00;;;;;;;;;;4936257;29;20253;-77
2023/06/06 00:38:32;;;;;;;3.80;3.47;;;;;;;;;;4936447;29;20198;-77
2023/06/06 00:40:59;;;;;;;3.93;3.10;;;;;;;;;;4935291;29;20186;-77
2023/06/06 00:43:25;;;;;;;4.07;3.77;;;;;;;;;;4936332;29;20197;-77
2023/06/06 00:45:52;;;;;;;5.73;3.50;;;;;;;;;;4918841;29;20197;-77
2023/06/06 00:48:18;;;;;;;4.10;3.70;;;;;;;;;;4934788;29;20670;-77
2023/06/06 00:50:47;;;;;;;3.73;3.33;;;;;;;;;;4934891;29;20206;-77
2023/06/06 00:53:13;;;;;;;4.30;3.50;;;;;;;;;;4950705;29;20197;-77
2023/06/06 00:55:41;;;;;;;4.47;4.07;;;;;;;;;;4934615;29;20182;-77
2023/06/06 00:58:08;;;;;;;3.90;3.60;;;;;;;;;;4926786;29;20577;-77
2023/06/06 01:00:34;;;;;;;4.10;3.70;;;;;;;;;;4918713;29;20278;-77
2023/06/06 01:03:09;;;;;;;3.97;3.53;;;;;;;;;;4949992;28;20869;-77
2023/06/06 01:05:37;;;;;;;4.70;3.80;;;;;;;;;;4934077;29;20185;-77
2023/06/06 01:08:05;;;;;;;5.10;3.70;;;;;;;;;;4935800;29;20207;-78
2023/06/06 01:10:34;;;;;;;4.87;3.40;;;;;;;;;;4935948;29;20296;-78
2023/06/06 01:13:11;;;;;;;4.43;3.57;;;;;;;;;;4903429;29;20604;-77
2023/06/06 01:15:44;;;;;;;3.60;3.30;;;;;;;;;;4935627;29;20257;-77
2023/06/06 01:18:12;;;;;;;4.13;3.37;;;;;;;;;;4934293;29;20908;-77
2023/06/06 01:20:42;;;;;;;3.20;3.00;;;;;;;;;;4935715;29;20190;-77
2023/06/06 01:23:11;;;;;;;4.00;3.60;;;;;;;;;;4935377;29;20572;-77
2023/06/06 01:25:40;;;;;;;5.97;3.60;;;;;;;;;;4934096;29;20202;-77
2023/06/06 01:28:12;;;;;;;3.70;3.40;;;;;;;;;;4935354;29;20210;-77
2023/06/06 01:30:40;;;;;;;3.67;3.37;;;;;;;;;;4934382;29;20206;-77
2023/06/06 01:33:21;;;;;;;3.63;3.33;;;;;;;;;;4934091;29;20243;-77
2023/06/06 01:36:00;;;;;;;3.67;3.37;;;;;;;;;;4933727;29;20553;-77
2023/06/06 01:38:29;;;;;;;4.13;3.27;;;;;;;;;;4935250;29;20201;-77
2023/06/06 01:40:57;;;;;;;3.67;3.37;;;;;;;;;;4935404;29;20182;-77
2023/06/06 01:43:24;;;;;;;3.67;3.37;;;;;;;;;;4935151;29;20178;-77
2023/06/06 01:45:51;;;;;;;3.60;3.30;;;;;;;;;;4933766;29;20601;-77
2023/06/06 01:48:18;;;;;;;3.70;3.40;;;;;;;;;;4935182;29;20198;-77
2023/06/06 01:50:45;;;;;;;3.57;3.27;;;;;;;;;;4934034;29;20642;-77
2023/06/06 01:53:11;;;;;;;3.90;3.60;;;;;;;;;;4935015;29;20182;-77
2023/06/06 01:55:39;;;;;;;3.73;3.37;;;;;;;;;;4934988;29;20650;-77
2023/06/06 01:58:05;;;;;;;3.33;3.03;;;;;;;;;;4933670;29;20280;-77
2023/06/06 02:00:31;;;;;;;4.73;3.40;;;;;;;;;;4933663;29;20277;-78
2023/06/06 02:02:58;;;;;;;4.50;3.50;;;;;;;;;;4933557;29;20566;-77
2023/06/06 02:05:24;;;;;;;3.93;3.40;;;;;;;;;;4932437;29;20672;-77
2023/06/06 02:07:51;;;;;;;3.63;3.30;;;;;;;;;;4931317;29;20225;-77
2023/06/06 02:10:18;;;;;;;4.00;3.43;;;;;;;;;;4915048;29;20207;-77
2023/06/06 02:12:44;;;;;;;4.10;3.37;;;;;;;;;;4915618;29;20185;-77
2023/06/06 02:15:11;;;;;;;5.07;3.63;;;;;;;;;;4916018;29;20222;-77
2023/06/06 02:17:37;;;;;;;3.90;3.27;;;;;;;;;;4882985;29;20261;-77
2023/06/06 02:20:07;;;;;;;3.57;3.27;;;;;;;;;;4914665;29;20193;-78
2023/06/06 02:22:33;;;;;;;3.73;3.27;;;;;;;;;;4915873;29;20643;-78
2023/06/06 02:25:03;;;;;;;3.50;3.20;;;;;;;;;;4927316;29;20225;-77
2023/06/06 02:27:30;;;;;;;3.90;3.50;;;;;;;;;;4921283;29;20214;-77
2023/06/06 02:29:56;;;;;;;4.20;3.80;;;;;;;;;;4933468;29;20212;-77
2023/06/06 02:32:23;;;;;;;3.70;3.40;;;;;;;;;;4932590;29;20313;-77
2023/06/06 02:34:50;;;;;;;4.10;3.47;;;;;;;;;;4924437;29;20244;-77
2023/06/06 02:37:16;;;;;;;4.03;3.23;;;;;;;;;;4913914;29;20257;-78
2023/06/06 02:39:43;;;;;;;3.80;3.40;;;;;;;;;;4913582;29;20217;-77
2023/06/06 02:42:09;;;;;;;3.93;3.53;;;;;;;;;;4913972;29;20182;-77
2023/06/06 02:44:35;;;;;;;3.97;3.57;;;;;;;;;;4913838;29;20590;-77
2023/06/06 02:47:01;;;;;;;4.03;3.63;;;;;;;;;;4913333;29;20205;-77
2023/06/06 02:49:28;;;;;;;3.67;3.33;;;;;;;;;;4913816;29;20242;-77
2023/06/06 02:51:55;;;;;;;3.83;3.17;;;;;;;;;;4898803;29;20273;-77
2023/06/06 02:54:21;;;;;;;3.57;3.23;;;;;;;;;;4915199;29;20503;-77
2023/06/06 02:56:48;;;;;;;4.37;3.50;;;;;;;;;;4913802;29;20310;-77
2023/06/06 02:59:14;;;;;;;3.87;3.57;;;;;;;;;;4898549;29;20318;-77
2023/06/06 03:01:44;;;;;;;3.77;3.40;;;;;;;;;;4898533;29;20601;-77
2023/06/06 03:04:14;;;;;;;3.97;3.57;;;;;;;;;;4919918;29;20186;-77
2023/06/06 03:06:40;;;;;;;3.37;3.10;;;;;;;;;;4924157;29;20218;-77
2023/06/06 03:09:10;;;;;;;5.67;3.37;;;;;;;;;;4914770;29;20221;-78
2023/06/06 03:11:41;;;;;;;3.40;3.10;;;;;;;;;;4900863;29;20213;-77
2023/06/06 03:14:08;;;;;;;3.40;3.10;;;;;;;;;;4933279;29;20206;-77
2023/06/06 03:16:36;;;;;;;4.00;3.60;;;;;;;;;;4928497;29;20182;-78
2023/06/06 03:19:04;;;;;;;3.50;3.20;;;;;;;;;;4932807;29;20264;-77
2023/06/06 03:21:33;;;;;;;4.23;3.40;;;;;;;;;;4932390;29;20208;-77
2023/06/06 03:24:00;;;;;;;3.70;3.40;;;;;;;;;;4932792;29;20190;-78
2023/06/06 03:26:26;;;;;;;4.10;3.70;;;;;;;;;;4913047;29;20261;-77
2023/06/06 03:28:56;;;;;;;5.50;3.60;;;;;;;;;;4932657;29;20230;-77
2023/06/06 03:31:24;;;;;;;4.33;3.63;;;;;;;;;;4932572;29;20186;-77
2023/06/06 03:33:51;;;;;;;3.73;3.43;;;;;;;;;;4916994;29;20566;-77
2023/06/06 03:36:19;;;;;;;3.40;3.10;;;;;;;;;;4932273;29;20232;-77
2023/06/06 03:38:47;;;;;;;5.13;3.47;;;;;;;;;;4932723;29;20333;-77
2023/06/06 03:41:14;;;;;;;3.63;3.33;;;;;;;;;;4932637;29;20217;-77
2023/06/06 03:43:43;;;;;;;3.60;3.30;;;;;;;;;;4932938;29;20277;-77
2023/06/06 03:46:09;;;;;;;4.03;3.70;;;;;;;;;;4933636;29;20170;-77
2023/06/06 03:48:35;;;;;;;3.57;3.27;;;;;;;;;;4913185;29;20195;-77
2023/06/06 03:51:02;;;;;;;4.37;3.60;;;;;;;;;;4913139;29;20242;-77
2023/06/06 03:53:28;;;;;;;3.70;3.40;;;;;;;;;;4906421;29;20276;-77
2023/06/06 03:55:58;;;;;;;4.67;3.60;;;;;;;;;;4913276;29;20183;-77
2023/06/06 03:58:25;;;;;;;4.37;3.97;;;;;;;;;;4915011;29;20195;-78
2023/06/06 04:00:51;;;;;;;5.30;3.70;;;;;;;;;;4913292;29;20198;-77
2023/06/06 04:03:18;;;;;;;4.00;3.60;;;;;;;;;;4897462;29;20289;-77
2023/06/06 04:05:47;;;;;;;3.83;3.43;;;;;;;;;;4913273;29;20238;-78
2023/06/06 04:08:13;;;;;;;5.07;3.60;;;;;;;;;;4913403;29;20237;-77
2023/06/06 04:10:39;;;;;;;3.57;3.27;;;;;;;;;;4913024;29;20207;-77
2023/06/06 04:13:05;;;;;;;4.10;3.70;;;;;;;;;;4914605;29;20185;-77
2023/06/06 04:15:31;;;;;;;4.90;3.60;;;;;;;;;;4913842;29;20183;-77
2023/06/06 04:17:58;;;;;;;4.10;3.70;;;;;;;;;;4912882;29;20670;-77
2023/06/06 04:20:26;;;;;;;3.97;3.57;;;;;;;;;;4913285;29;20175;-77
2023/06/06 04:22:53;;;;;;;3.70;3.40;;;;;;;;;;4912815;29;20558;-77
2023/06/06 04:25:19;;;;;;;4.60;3.80;;;;;;;;;;4929101;29;20225;-77
2023/06/06 04:27:48;;;;;;;4.33;3.40;;;;;;;;;;4912668;29;20729;-77
2023/06/06 04:30:14;;;;;;;4.27;3.87;;;;;;;;;;4897308;29;20257;-77
2023/06/06 04:32:41;;;;;;;4.00;3.63;;;;;;;;;;4912781;29;20171;-77
2023/06/06 04:35:11;;;;;;;3.97;3.63;;;;;;;;;;4914558;29;20249;-77
2023/06/06 04:37:39;;;;;;;4.43;3.63;;;;;;;;;;4914382;29;20201;-77
2023/06/06 04:40:06;;;;;;;6.10;3.73;;;;;;;;;;4918131;29;20246;-78
2023/06/06 04:42:35;;;;;;;4.73;4.20;;;;;;;;;;4932900;29;20181;-78
2023/06/06 04:45:03;;;;;;;3.73;3.33;;;;;;;;;;4936795;29;20662;-78
2023/06/06 04:47:32;;;;;;;6.97;3.73;;;;;;;;;;4951135;29;20194;-78
2023/06/06 04:49:58;;;;;;;4.03;3.63;;;;;;;;;;4935239;29;20218;-77
2023/06/06 04:52:25;;;;;;;4.40;4.00;;;;;;;;;;4939608;29;20202;-77
2023/06/06 04:54:51;;;;;;;4.30;3.63;;;;;;;;;;4936610;29;20209;-77
2023/06/06 04:57:19;;;;;;;4.67;4.27;;;;;;;;;;4933666;29;20643;-78
2023/06/06 04:59:51;;;;;;;4.30;3.90;;;;;;;;;;4932092;29;20238;-77
2023/06/06 05:02:20;;;;;;;3.83;3.50;;;;;;;;;;4917444;29;20655;-77
2023/06/06 05:04:48;;;;;;;5.03;4.07;;;;;;;;;;4931364;29;20209;-77
2023/06/06 05:07:14;;;;;;;4.40;4.00;;;;;;;;;;4917144;29;20254;-77
2023/06/06 05:09:40;;;;;;;4.60;4.20;;;;;;;;;;4931844;29;20226;-77
2023/06/06 05:12:06;;;;;;;4.07;3.67;;;;;;;;;;4917287;29;20179;-77
2023/06/06 05:14:32;;;;;;;5.53;3.90;;;;;;;;;;4917370;29;20175;-77
2023/06/06 05:16:59;;;;;;;5.27;3.90;;;;;;;;;;4916643;29;20233;-77
2023/06/06 05:19:25;;;;;;;4.50;3.77;;;;;;;;;;4923246;29;20234;-77
2023/06/06 05:21:51;;;;;;;4.50;3.70;;;;;;;;;;4934434;29;20623;-77
2023/06/06 05:24:17;;;;;;;4.13;3.73;;;;;;;;;;4935928;29;20185;-77
2023/06/06 05:26:43;;;;;;;4.27;3.87;;;;;;;;;;4935526;29;20186;-77
2023/06/06 05:29:10;;;;;;;4.20;3.80;;;;;;;;;;4923624;29;20218;-77
2023/06/06 05:31:36;;;;;;;4.53;3.70;;;;;;;;;;4917141;29;20178;-77
2023/06/06 05:34:03;;;;;;;7.73;4.10;;;;;;;;;;4916563;29;20269;-78
2023/06/06 05:36:29;;;;;;;6.43;4.00;;;;;;;;;;4916751;29;20190;-77
2023/06/06 05:38:56;;;;;;;5.53;4.13;;;;;;;;;;4917226;29;20707;-77
2023/06/06 05:41:22;;;;;;;4.53;4.10;;;;;;;;;;4919444;29;20295;-77
2023/06/06 05:43:50;;;;;;;4.57;3.93;;;;;;;;;;4928318;29;20293;-77
2023/06/06 05:46:16;;;;;;;4.00;3.60;;;;;;;;;;4919565;29;20269;-77
2023/06/06 05:48:42;;;;;;;4.00;3.60;;;;;;;;;;4930147;29;20285;-77
2023/06/06 05:51:08;;;;;;;5.23;3.93;;;;;;;;;;4923225;29;20205;-77
2023/06/06 05:53:45;;;;;;;4.63;4.00;;;;;;;;;;4922534;29;20706;-77
2023/06/06 05:56:12;;;;;;;4.40;4.00;;;;;;;;;;4928896;29;20179;-77
2023/06/06 05:58:38;;;;;;;6.57;4.90;;;;;;;;;;4935444;29;20571;-77
2023/06/06 06:01:05;;;;;;;5.53;4.40;;;;;;;;;;4934438;29;20216;-77
2023/06/06 06:03:33;;;;;;;5.57;4.23;;;;;;;;;;4934209;29;20202;-77
2023/06/06 06:06:02;;;;;;;4.77;4.27;;;;;;;;;;4930766;29;20190;-77
2023/06/06 06:08:28;;;;;;;5.13;4.27;;;;;;;;;;4927213;29;20201;-77
2023/06/06 06:10:55;;;;;;;5.60;4.93;;;;;;;;;;4920083;29;20270;-77
2023/06/06 06:13:22;;;;;;;5.83;5.07;;;;;;;;;;4928502;29;20650;-77
2023/06/06 06:15:48;;;;;;;5.27;4.77;;;;;;;;;;4933063;29;20197;-77
2023/06/06 06:18:14;;;;;;;5.47;4.43;;;;;;;;;;4919376;29;20236;-77
2023/06/06 06:20:40;;;;;;;4.40;4.00;;;;;;;;;;4921815;29;20663;-77
2023/06/06 06:23:07;;;;;;;5.83;4.13;;;;;;;;;;4914949;29;20222;-74
2023/06/06 06:25:35;;;;;;;5.60;4.40;;;;;;;;;;4935032;29;20178;-77
2023/06/06 06:28:02;;;;;;;4.90;3.53;;;;;;;;;;4918779;29;20214;-75
2023/06/06 06:30:28;;;;;;;4.13;3.73;;;;;;;;;;4923317;29;20197;-76
2023/06/06 06:32:54;;;;;;;4.60;4.17;;;;;;;;;;4949618;29;20186;-75
2023/06/06 06:35:20;;;;;;;4.57;4.00;;;;;;;;;;4935030;29;20253;-75
2023/06/06 06:37:47;;;;;;;4.97;3.83;;;;;;;;;;4934388;29;20553;-76
2023/06/06 06:40:14;;;;;;;4.47;4.07;;;;;;;;;;4934895;29;20269;-75
2023/06/06 06:42:43;;;;;;;4.40;4.00;;;;;;;;;;4933447;29;20212;-76
2023/06/06 06:45:30;;;;;;;4.50;3.90;;;;;;;;;;4930203;29;20264;-75
2023/06/06 06:47:58;;;;;;;5.40;3.60;;;;;;;;;;4918885;29;20293;-75
2023/06/06 06:50:24;;;;;;;4.83;3.90;;;;;;;;;;4915718;29;20593;-75
2023/06/06 06:52:53;;;;;;;3.80;3.50;;;;;;;;;;4917121;29;20214;-75
2023/06/06 06:55:23;;;;;;;5.23;3.90;;;;;;;;;;4915670;29;20167;-75
2023/06/06 06:57:51;;;;;;;5.40;4.10;;;;;;;;;;4922983;29;20209;-75
2023/06/06 07:00:19;;;;;;;5.03;3.90;;;;;;;;;;4926989;29;20651;-76
2023/06/06 07:02:46;;;;;;;4.53;3.63;;;;;;;;;;4930852;29;20197;-75
2023/06/06 07:05:12;;;;;;;4.10;3.70;;;;;;;;;;4928745;29;20233;-75
2023/06/06 07:07:46;;;;;;;4.10;3.70;;;;;;;;;;4932162;29;20201;-75
2023/06/06 07:10:14;;;;;;;5.07;3.80;;;;;;;;;;4932955;29;20204;-75
2023/06/06 07:12:40;;;;;;;4.77;3.67;;;;;;;;;;4921705;29;20277;-75
2023/06/06 07:15:08;;;;;;;3.60;3.30;;;;;;;;;;4925022;29;20190;-75
2023/06/06 07:17:34;;;;;;;3.80;3.50;;;;;;;;;;4932564;29;20193;-75
2023/06/06 07:20:05;;;;;;;4.60;3.93;;;;;;;;;;4932755;29;20226;-75
2023/06/06 07:22:35;;;;;;;4.60;3.73;;;;;;;;;;4932499;29;20189;-76
2023/06/06 07:25:03;;;;;;;4.17;3.70;;;;;;;;;;4929885;29;20198;-75
2023/06/06 07:27:33;;;;;;;4.97;3.87;;;;;;;;;;4933792;29;20174;-74
2023/06/06 07:30:00;;;;;;;5.47;3.93;;;;;;;;;;4934039;29;20209;-76
2023/06/06 07:32:27;;;;;;;4.13;3.73;;;;;;;;;;4934055;29;20536;-75
2023/06/06 07:34:53;;;;;;;5.00;4.10;;;;;;;;;;4929804;29;20178;-75
2023/06/06 07:37:19;;;;;;;4.47;3.80;;;;;;;;;;4936074;29;20182;-75
2023/06/06 07:39:46;;;;;;;4.60;4.20;;;;;;;;;;4920376;29;20237;-75
2023/06/06 07:42:12;;;;;;;4.43;4.00;;;;;;;;;;4924229;29;20189;-75
2023/06/06 07:44:40;;;;;;;5.13;3.77;;;;;;;;;;4931949;29;20186;-76
2023/06/06 07:47:06;;;;;;;4.83;3.67;;;;;;;;;;4933086;29;20224;-76
2023/06/06 07:49:32;;;;;;;5.20;3.60;;;;;;;;;;4948397;29;20652;-75
2023/06/06 07:51:58;;;;;;;4.17;3.87;;;;;;;;;;4921799;29;20190;-77
2023/06/06 07:54:24;;;;;;;5.63;3.90;;;;;;;;;;4931958;29;20673;-76
2023/06/06 07:56:51;;;;;;;4.97;4.00;;;;;;;;;;4932807;29;20639;-76
2023/06/06 07:59:17;;;;;;;5.03;3.90;;;;;;;;;;4931692;29;20213;-75
2023/06/06 08:01:44;;;;;;;5.70;3.70;;;;;;;;;;4933323;29;20720;-75
2023/06/06 08:04:11;;;;;;;6.47;4.30;;;;;;;;;;4933822;29;20241;-77
2023/06/06 08:06:37;;;;;;;4.67;4.27;;;;;;;;;;4933416;29;20182;-76
2023/06/06 08:09:06;;;;;;;6.67;4.00;;;;;;;;;;4929801;29;20217;-76
2023/06/06 08:11:36;;;;;;;4.30;3.70;;;;;;;;;;4919949;29;20233;-75
2023/06/06 08:14:02;;;;;;;6.43;3.70;;;;;;;;;;4937338;29;20186;-75
2023/06/06 08:16:28;;;;;;;4.30;3.90;;;;;;;;;;4934748;29;20186;-76
2023/06/06 08:18:54;;;;;;;5.07;4.00;;;;;;;;;;4935810;29;20210;-75
2023/06/06 08:21:22;;;;;;;4.73;4.07;;;;;;;;;;4937241;29;20193;-75
2023/06/06 08:23:48;;;;;;;4.10;3.70;;;;;;;;;;4903822;29;20282;-75
2023/06/06 08:26:14;;;;;;;7.10;4.67;;;;;;;;;;4924258;29;20693;-76
2023/06/06 08:28:40;;;;;;;5.57;3.90;;;;;;;;;;4918154;29;20345;-77
2023/06/06 08:31:08;;;;;;;5.33;3.90;;;;;;;;;;4936713;29;20206;-75
2023/06/06 08:33:34;;;;;;;4.10;3.70;;;;;;;;;;4935567;29;20272;-76
2023/06/06 08:36:00;;;;;;;8.27;3.80;;;;;;;;;;4936665;29;20188;-76
2023/06/06 08:38:26;;;;;;;7.37;3.83;;;;;;;;;;4936258;29;20229;-76
2023/06/06 08:40:55;;;;;;;5.20;3.93;;;;;;;;;;4936914;29;20178;-76
2023/06/06 08:43:22;;;;;;;6.13;4.10;;;;;;;;;;4936525;29;20194;-76
2023/06/06 08:45:56;;;;;;;4.27;3.73;;;;;;;;;;4934754;29;20285;-76
2023/06/06 08:48:24;;;;;;;5.13;3.93;;;;;;;;;;4936226;29;20265;-77
2023/06/06 08:50:50;;;;;;;4.13;3.73;;;;;;;;;;4935407;29;20279;-77
2023/06/06 08:53:16;;;;;;;4.20;3.80;;;;;;;;;;4934049;29;20265;-78
2023/06/06 08:55:42;;;;;;;4.67;3.90;;;;;;;;;;4930018;29;20285;-79
2023/06/06 08:58:11;;;;;;;6.67;3.97;;;;;;;;;;4934228;29;20686;-77
2023/06/06 09:00:37;;;;;;;3.60;3.30;;;;;;;;;;4931542;29;20217;-76
2023/06/06 09:03:06;;;;;;;7.60;4.00;;;;;;;;;;4934058;29;20186;-76
2023/06/06 09:05:33;;;;;;;4.43;4.03;;;;;;;;;;4931522;29;20619;-76
2023/06/06 09:07:59;;;;;;;6.63;4.10;;;;;;;;;;4930084;29;20207;-76
2023/06/06 09:10:25;;;;;;;4.60;4.10;;;;;;;;;;4934546;29;20248;-75
2023/06/06 09:12:51;;;;;;;4.37;3.97;;;;;;;;;;4930985;29;20305;-76
2023/06/06 09:15:17;;;;;;;5.20;4.20;;;;;;;;;;4936444;29;20178;-76
2023/06/06 09:17:45;;;;;;;4.40;4.00;;;;;;;;;;4935966;29;20190;-76
2023/06/06 09:20:12;;;;;;;4.73;4.20;;;;;;;;;;4935628;29;20646;-78
2023/06/06 09:22:42;;;;;;;5.20;4.70;;;;;;;;;;4935286;29;20649;-76
2023/06/06 09:25:24;;;;;;;4.57;4.13;;;;;;;;;;4935477;29;20278;-76
2023/06/06 09:27:58;;;;;;;4.73;4.23;;;;;;;;;;4930814;29;20217;-75
2023/06/06 09:30:26;;;;;;;5.57;4.20;;;;;;;;;;4933908;29;20366;-75
2023/06/06 09:32:57;;;;;;;5.20;4.70;;;;;;;;;;4934115;29;20187;-75
2023/06/06 09:35:23;;;;;;;4.63;4.23;;;;;;;;;;4916819;29;20182;-75
2023/06/06 09:37:50;;;;;;;7.10;4.63;;;;;;;;;;4916371;29;20189;-75
2023/06/06 09:40:17;;;;;;;4.80;4.00;;;;;;;;;;4932832;29;20651;-76
2023/06/06 09:42:47;;;;;;;5.93;4.50;;;;;;;;;;4930986;29;20205;-75
2023/06/06 09:45:14;;;;;;;5.80;4.30;;;;;;;;;;4930183;29;20194;-75
2023/06/06 09:47:44;;;;;;;5.43;4.10;;;;;;;;;;4930714;29;20277;-75
2023/06/06 09:50:11;;;;;;;5.83;4.37;;;;;;;;;;4929430;29;20300;-75
2023/06/06 09:52:38;;;;;;;5.20;4.43;;;;;;;;;;4928337;29;20190;-75
2023/06/06 09:55:08;;;;;;;5.20;4.23;;;;;;;;;;4928650;29;20273;-78
2023/06/06 09:57:37;;;;;;;4.90;4.50;;;;;;;;;;4931335;29;20190;-77
2023/06/06 10:00:07;;;;;;;6.03;4.63;;;;;;;;;;4930775;29;20250;-75
2023/06/06 10:02:48;;;;;;;5.07;4.53;;;;;;;;;;4946448;29;21729;-76
2023/06/06 10:05:20;;;;;;;4.80;4.27;;;;;;;;;;4944090;29;20190;-75
2023/06/06 10:07:47;;;;;;;8.10;4.70;;;;;;;;;;4931363;29;20204;-76
2023/06/06 10:10:14;;;;;;;5.67;4.43;;;;;;;;;;4932060;29;20574;-76
2023/06/06 10:12:41;;;;;;;5.47;4.87;;;;;;;;;;4923862;29;20210;-77
2023/06/06 10:15:14;;;;;;;5.23;4.20;;;;;;;;;;4935546;29;20213;-76
2023/06/06 10:17:41;;;;;;;4.67;4.27;;;;;;;;;;4947075;29;20190;-75
2023/06/06 10:20:09;;;;;;;4.67;4.27;;;;;;;;;;4927277;29;20268;-79
2023/06/06 10:22:36;;;;;;;4.60;4.20;;;;;;;;;;4928765;29;20635;-76
2023/06/06 10:25:08;;;;;;;5.03;4.53;;;;;;;;;;4930341;29;20210;-78
2023/06/06 10:27:44;;;;;;;5.40;4.70;;;;;;;;;;4931694;29;20264;-75
2023/06/06 10:30:15;;;;;;;4.53;4.13;;;;;;;;;;4934724;29;20717;-76
2023/06/06 10:32:41;;;;;;;6.33;4.10;;;;;;;;;;4930376;29;20186;-77
2023/06/06 10:35:09;;;;;;;4.83;4.10;;;;;;;;;;4932526;29;20338;-79
2023/06/06 10:37:38;;;;;;;6.97;3.90;;;;;;;;;;4933989;29;20540;-79
2023/06/06 10:40:05;;;;;;;5.57;4.33;;;;;;;;;;4934474;29;20193;-79
2023/06/06 10:42:35;;;;;;;4.33;3.93;;;;;;;;;;4929354;29;20230;-77
2023/06/06 10:45:01;;;;;;;4.67;4.23;;;;;;;;;;4931066;29;20279;-75
2023/06/06 10:47:35;;;;;;;4.50;4.10;;;;;;;;;;4922737;29;20191;-75
2023/06/06 10:50:11;;;;;;;4.33;3.63;;;;;;;;;;4934031;29;20296;-74
2023/06/06 10:52:54;;;;;;;4.63;4.20;;;;;;;;;;4920504;29;20194;-75
2023/06/06 10:55:23;;;;;;;6.27;4.00;;;;;;;;;;4931996;29;20250;-76
2023/06/06 10:57:51;;;;;;;4.30;3.90;;;;;;;;;;4932541;29;20222;-74
2023/06/06 11:00:18;;;;;;;4.60;3.87;;;;;;;;;;4931146;29;20206;-75
2023/06/06 11:02:46;;;;;;;5.77;3.97;;;;;;;;;;4935502;29;20261;-75
2023/06/06 11:05:12;;;;;;;4.10;3.70;;;;;;;;;;4944262;29;20194;-78
2023/06/06 11:07:39;;;;;;;4.30;3.90;;;;;;;;;;4927539;29;20186;-75
2023/06/06 11:10:06;;;;;;;3.90;3.50;;;;;;;;;;4934405;29;20264;-74
2023/06/06 11:12:33;;;;;;;4.50;3.63;;;;;;;;;;4929551;29;20237;-74
2023/06/06 11:15:05;;;;;;;5.27;3.77;;;;;;;;;;4933753;29;20195;-76
2023/06/06 11:17:53;;;;;;;5.20;3.37;;;;;;;;;;4928385;29;20271;-74
2023/06/06 11:20:27;;;;;;;5.27;3.50;;;;;;;;;;4933322;29;20681;-78
2023/06/06 11:23:03;;;;;;;4.90;4.00;;;;;;;;;;4932568;29;20268;-77
2023/06/06 11:25:30;;;;;;;7.10;3.70;;;;;;;;;;4927496;29;20181;-74
2023/06/06 11:27:58;;;;;;;4.00;3.70;;;;;;;;;;4933938;29;20213;-74
2023/06/06 11:30:24;;;;;;;4.30;3.43;;;;;;;;;;4933505;29;20217;-76
2023/06/06 11:32:53;;;;;;;4.23;3.30;;;;;;;;;;4932325;29;20225;-74
2023/06/06 11:35:21;;;;;;;3.80;3.40;;;;;;;;;;4930153;29;20185;-76
2023/06/06 11:37:47;;;;;;;4.50;3.50;;;;;;;;;;4920763;29;20284;-74
2023/06/06 11:40:14;;;;;;;4.20;3.50;;;;;;;;;;4927536;29;20193;-75
2023/06/06 11:42:44;;;;;;;4.00;3.60;;;;;;;;;;4933972;29;20196;-75
2023/06/06 11:45:17;;;;;;;5.33;3.90;;;;;;;;;;4933654;29;20194;-75
2023/06/06 11:47:44;;;;;;;5.73;3.90;;;;;;;;;;4936745;29;20190;-77
2023/06/06 11:50:11;;;;;;;4.10;3.70;;;;;;;;;;4936599;29;20221;-78
2023/06/06 11:52:47;;;;;;;4.77;3.60;;;;;;;;;;4937317;29;20602;-76
2023/06/06 11:55:14;;;;;;;5.97;3.60;;;;;;;;;;4936776;29;20191;-76
2023/06/06 11:57:40;;;;;;;4.33;3.60;;;;;;;;;;4935466;29;20182;-77
2023/06/06 12:00:15;;;;;;;4.47;3.57;;;;;;;;;;4931544;29;20268;-79
2023/06/06 12:02:42;;;;;;;4.70;3.80;;;;;;;;;;4928359;29;20197;-78
2023/06/06 12:05:18;;;;;;;4.90;3.90;;;;;;;;;;4927810;29;20178;-79
2023/06/06 12:07:44;;;;;;;4.07;3.67;;;;;;;;;;4925875;29;20198;-83
2023/06/06 12:10:11;;;;;;;5.57;3.30;;;;;;;;;;4926138;29;20856;-80
2023/06/06 12:12:45;;;;;;;7.10;3.53;;;;;;;;;;4925379;29;20285;-79
2023/06/06 12:15:11;;;;;;;6.90;3.83;;;;;;;;;;4929355;29;20221;-82
2023/06/06 12:17:37;;;;;;;5.60;3.77;;;;;;;;;;4925467;29;20602;-80
2023/06/06 12:20:04;;;;;;;4.27;3.53;;;;;;;;;;4927226;29;20213;-80
2023/06/06 12:22:32;;;;;;;3.87;3.47;;;;;;;;;;4928611;29;20218;-79
2023/06/06 12:24:58;;;;;;;3.67;3.37;;;;;;;;;;4923992;29;20190;-80
2023/06/06 12:27:26;;;;;;;4.83;3.40;;;;;;;;;;4927401;29;20235;-79
2023/06/06 12:29:54;;;;;;;3.97;3.57;;;;;;;;;;4932654;29;20700;-79
2023/06/06 12:32:25;;;;;;;4.10;3.73;;;;;;;;;;4948595;29;20192;-79
2023/06/06 12:35:05;;;;;;;5.43;3.60;;;;;;;;;;4931340;29;20629;-79
2023/06/06 12:37:36;;;;;;;4.07;3.20;;;;;;;;;;4928020;29;20247;-83
2023/06/06 12:40:08;;;;;;;3.83;3.40;;;;;;;;;;4931138;29;20197;-81
2023/06/06 12:42:34;;;;;;;4.60;3.67;;;;;;;;;;4932868;29;20224;-80
2023/06/06 12:45:01;;;;;;;5.63;3.10;;;;;;;;;;4931042;29;20269;-80
2023/06/06 12:47:28;;;;;;;3.57;3.27;;;;;;;;;;4925177;29;20275;-81
2023/06/06 12:49:55;;;;;;;4.60;3.50;;;;;;;;;;4926720;29;20309;-80
2023/06/06 12:52:21;;;;;;;4.00;3.57;;;;;;;;;;4927506;29;20883;-82
2023/06/06 12:54:47;;;;;;;4.33;3.30;;;;;;;;;;4926732;29;20192;-79
2023/06/06 12:57:15;;;;;;;3.67;3.37;;;;;;;;;;4926607;29;20189;-80
2023/06/06 12:59:44;;;;;;;3.53;3.23;;;;;;;;;;4928180;29;20217;-80
2023/06/06 13:02:11;;;;;;;4.00;3.60;;;;;;;;;;4926434;29;20250;-81
2023/06/06 13:04:37;;;;;;;3.80;3.50;;;;;;;;;;4927896;29;20202;-80
2023/06/06 13:07:05;;;;;;;3.47;3.17;;;;;;;;;;4926078;29;20283;-80
2023/06/06 13:09:31;;;;;;;3.80;3.40;;;;;;;;;;4927772;29;20220;-82
2023/06/06 13:11:57;;;;;;;3.97;3.60;;;;;;;;;;4927484;29;20184;-81
2023/06/06 13:14:24;;;;;;;3.70;3.40;;;;;;;;;;4928600;29;20534;-81
2023/06/06 13:16:50;;;;;;;4.50;3.87;;;;;;;;;;4941187;29;20186;-81
2023/06/06 13:19:16;;;;;;;3.87;3.57;;;;;;;;;;4927548;29;20364;-80
2023/06/06 13:21:46;;;;;;;5.53;3.73;;;;;;;;;;4927302;29;20795;-80
2023/06/06 13:24:15;;;;;;;5.90;3.40;;;;;;;;;;4924169;29;20564;-80
2023/06/06 13:26:42;;;;;;;5.23;3.10;;;;;;;;;;4922062;29;20191;-80
2023/06/06 13:29:09;;;;;;;3.70;3.30;;;;;;;;;;4926375;29;20210;-80
2023/06/06 13:31:37;;;;;;;5.63;3.50;;;;;;;;;;4925605;29;20746;-81
2023/06/06 13:34:04;;;;;;;4.10;3.60;;;;;;;;;;4925938;29;20273;-82
2023/06/06 13:36:30;;;;;;;3.93;3.53;;;;;;;;;;4927093;29;20229;-79
2023/06/06 13:38:57;;;;;;;3.97;3.60;;;;;;;;;;4926730;29;20299;-80
2023/06/06 13:41:23;;;;;;;4.90;3.73;;;;;;;;;;4925763;29;20265;-80
2023/06/06 13:43:49;;;;;;;4.60;3.47;;;;;;;;;;4926979;29;20186;-80
2023/06/06 13:46:15;;;;;;;4.20;3.77;;;;;;;;;;4927626;29;20224;-80
2023/06/06 13:48:41;;;;;;;5.00;4.00;;;;;;;;;;4924044;29;20221;-80
2023/06/06 13:51:07;;;;;;;6.20;3.60;;;;;;;;;;4924347;29;20211;-80
2023/06/06 13:53:34;;;;;;;4.67;4.00;;;;;;;;;;4925734;29;20179;-81
2023/06/06 13:56:00;;;;;;;4.80;3.90;;;;;;;;;;4922556;29;20197;-79
2023/06/06 13:58:31;;;;;;;4.47;4.07;;;;;;;;;;4925346;29;20201;-81
2023/06/06 14:00:57;;;;;;;5.87;3.63;;;;;;;;;;4924849;29;20209;-80
2023/06/06 14:03:24;;;;;;;5.17;3.30;;;;;;;;;;4926721;29;20220;-79
2023/06/06 14:05:50;;;;;;;4.93;3.53;;;;;;;;;;4927469;29;20726;-81
2023/06/06 14:08:17;;;;;;;3.70;3.40;;;;;;;;;;4925952;29;20693;-82
2023/06/06 14:10:43;;;;;;;4.83;3.57;;;;;;;;;;4940480;29;20215;-82
2023/06/06 14:13:09;;;;;;;7.20;3.47;;;;;;;;;;4927080;29;20189;-81
2023/06/06 14:15:35;;;;;;;4.90;3.80;;;;;;;;;;4928128;29;20214;-81
2023/06/06 14:18:01;;;;;;;3.80;3.40;;;;;;;;;;4932417;29;20589;-80
2023/06/06 14:20:36;;;;;;;4.30;3.80;;;;;;;;;;4929241;29;20186;-81
2023/06/06 14:23:03;;;;;;;3.60;3.30;;;;;;;;;;4928122;29;22578;-80
2023/06/06 14:25:30;;;;;;;3.50;3.17;;;;;;;;;;4931328;29;20204;-80
2023/06/06 14:27:56;;;;;;;3.53;3.10;;;;;;;;;;4913284;29;20208;-84
2023/06/06 14:30:22;;;;;;;4.87;3.40;;;;;;;;;;4932257;29;20211;-81
2023/06/06 14:32:48;;;;;;;4.60;3.37;;;;;;;;;;4931566;29;20604;-81
2023/06/06 14:35:14;;;;;;;4.00;3.40;;;;;;;;;;4948891;29;20195;-81
2023/06/06 14:37:40;;;;;;;4.23;3.50;;;;;;;;;;4916147;29;20279;-82
2023/06/06 14:40:07;;;;;;;4.17;3.27;;;;;;;;;;4933694;29;20607;-81
2023/06/06 14:42:33;;;;;;;3.50;3.07;;;;;;;;;;4933574;29;20687;-81
2023/06/06 14:45:00;;;;;;;5.07;3.40;;;;;;;;;;4930648;29;20752;-80
2023/06/06 14:47:26;;;;;;;6.23;3.17;;;;;;;;;;4931239;29;20207;-81